Insider Trading activities of Texas Pacific Land Trust (TPL)

Insider trading activities (stock purchases, sales, and option exercises) reported by insiders of Texas Pacific Land Trust (TPL) since 2005 are illustrated in Table 1 and Table 2. Table 1 shows the monthly insider trading data of Texas Pacific Land Trust since year 2005. Table 2 shows the detailed insider transactions of Texas Pacific Land Trust since 2005. The reporting company's ticker symbol is TPL. The reporting company's CIK number is 97517.
The total value of stock buying since 2005 is $2,354,515.
The total value of stock sales since 2005 is $3,103,623.
The total value of stock option exercises since 2005 is $0.


Table 1. Monthly summaries of insider stock purchases, sales, and option exercises for Texas Pacific Land Trust (TPL).
Trading Period Insider Buying Insider Sales Option Exercises
year-month Shares Value Shares Value Shares Value
2019-04 2,057 $1,653,959 0 $0 0 $0
2019-03 427 $323,461 0 $0 0 $0
2018-12 300 $165,406 0 $0 0 $0
2018-11 0 $0 1,500 $876,725 0 $0
2018-10 100 $81,000 109 $95,266 0 $0
2018-09 0 $0 1,500 $1,277,500 0 $0
2018-08 0 $0 1,000 $854,132 0 $0
2017-03 200 $58,576 0 $0 0 $0
2015-02 200 $24,545 0 $0 0 $0
2014-12 17 $1,892 0 $0 0 $0
2014-11 33 $4,816 0 $0 0 $0
2011-12 100 $4,175 0 $0 0 $0
2008-10 800 $24,765 0 $0 0 $0
2005-10 100 $11,920 0 $0 0 $0

Table 2. Detailed insider stock purchases, sales, and option exercises of Texas Pacific Land Trust insiders (TPL)
  Trade Date   Insider Name Trade Type     Shares       Price ($)   Value ($)
2019-04-22 Kinetics Asset Management Llc (10% Owner) Buy 36 896.07 32,258
2019-04-18 Kinetics Asset Management Llc (10% Owner) Buy 42 899.92 37,796
2019-04-17 Kinetics Asset Management Llc (10% Owner) Buy 42 887.23 37,263
2019-04-16 Kinetics Asset Management Llc (10% Owner) Buy 42 898.49 37,736
2019-04-15 Kinetics Asset Management Llc (10% Owner) Buy 42 903.05 37,928
2019-04-12 Kinetics Asset Management Llc (10% Owner) Buy 42 903.52 37,947
2019-04-11 Kinetics Asset Management Llc (10% Owner) Buy 42 911.07 38,264
2019-04-10 Kinetics Asset Management Llc (10% Owner) Buy 42 874.06 36,710
2019-04-09 Kinetics Asset Management Llc (10% Owner) Buy 36 821.55 29,575
2019-04-08 Kinetics Asset Management Llc (10% Owner) Buy 7 814.50 5,701
2019-04-05 Kinetics Asset Management Llc (10% Owner) Buy 42 792.27 33,275
2019-04-04 Kinetics Asset Management Llc (10% Owner) Buy 1,516 784.57 1,189,408
2019-04-03 Kinetics Asset Management Llc (10% Owner) Buy 42 797.88 33,510
2019-04-02 Kinetics Asset Management Llc (10% Owner) Buy 42 801.16 33,648
2019-04-01 Kinetics Asset Management Llc (10% Owner) Buy 42 784.30 32,940
2019-03-29 Kinetics Asset Management Llc (10% Owner) Buy 42 773.48 32,486
2019-03-28 Kinetics Asset Management Llc (10% Owner) Buy 7 774.83 5,423
2019-03-27 Kinetics Asset Management Llc (10% Owner) Buy 42 774.38 32,523
2019-03-26 Kinetics Asset Management Llc (10% Owner) Buy 42 764.28 32,099
2019-03-25 Kinetics Asset Management Llc (10% Owner) Buy 42 725.36 30,465
2019-03-22 Kinetics Asset Management Llc (10% Owner) Buy 42 751.10 31,546
2019-03-21 Kinetics Asset Management Llc (10% Owner) Buy 42 767.89 32,251
2019-03-20 Kinetics Asset Management Llc (10% Owner) Buy 42 765.98 32,171
2019-03-19 Kinetics Asset Management Llc (10% Owner) Buy 42 760.69 31,948
2019-03-18 Kinetics Asset Management Llc (10% Owner) Buy 42 741.16 31,128
2019-03-15 Kinetics Asset Management Llc (10% Owner) Buy 42 748.14 31,421
2018-12-26 Barry David E. (Other) Buy 100 467.06 46,706
2018-12-04 Glover Tyler (Co-General Agent) Buy 100 598.00 59,800
2018-12-04 Packer Robert J (Chief Financial Officer) Buy 100 589.00 58,900
2018-11-19 Meyer Maurice Iii (Other) Sale 500 607.26 303,630
2018-11-15 Meyer Maurice Iii (Other) Sale 500 570.00 285,000
2018-11-14 Meyer Maurice Iii (Other) Sale 500 576.19 288,095
2018-10-11 Barry David E. (Director) Buy 100 810.00 81,000
2018-10-03 Meyer Maurice Iii (Other) Sale 109 874.00 95,266
2018-09-26 Meyer Maurice Iii (Other) Sale 1,000 860.00 860,000
2018-09-12 Meyer Maurice Iii (Other) Sale 500 835.00 417,500
2018-08-27 Meyer Maurice Iii (Other) Sale 1,000 854.13 854,132
2017-03-03 Barry David E. (Other) Buy 100 292.00 29,200
2017-03-03 Packer Robert J (Chief Financial Officer) Buy 100 293.76 29,376
2015-02-03 Norwood James K (Other) Buy 200 122.72 24,545
2014-12-12 Peterson David M (General Agent) Buy 17 111.33 1,892
2014-11-05 Peterson David M (General Agent and CFO) Buy 33 145.95 4,816
2011-12-20 Norwood James K (Other) Buy 100 41.75 4,175
2008-10-08 Norwood James K (Other) Buy 300 26.30 7,890
2008-10-06 Thomas Roy (General Agent and CEO) Buy 500 33.75 16,875
2005-10-25 Meyer Maurice Iii (Other) Buy 100 119.20 11,920

Insider trading activities including stock purchases, stock sales, and option exercises of TPL listed in the above tables cannot be completely guaranteed as to their accuracy. For more insider trading information of Texas Pacific Land Trust (symbol TPL, CIK number 97517) see the Securities and Exchange Commission (SEC) website.